sensor_id;sensor_type;location;lat;lon;timestamp;temperature;humidity
1447;DHT22;717;51.522;7.266;2023-04-30T00:00:40;15.00;99.90
1447;DHT22;717;51.522;7.266;2023-04-30T00:03:11;15.00;99.90
1447;DHT22;717;51.522;7.266;2023-04-30T00:05:40;15.00;99.90
1447;DHT22;717;51.522;7.266;2023-04-30T00:08:08;15.00;99.90
1447;DHT22;717;51.522;7.266;2023-04-30T00:10:37;15.00;99.90
1447;DHT22;717;51.522;7.266;2023-04-30T00:13:05;14.90;99.90
1447;DHT22;717;51.522;7.266;2023-04-30T00:15:34;14.90;99.90
1447;DHT22;717;51.522;7.266;2023-04-30T00:18:03;14.90;99.90
1447;DHT22;717;51.522;7.266;2023-04-30T00:20:34;14.90;99.90
1447;DHT22;717;51.522;7.266;2023-04-30T00:23:03;14.80;99.90
1447;DHT22;717;51.522;7.266;2023-04-30T00:25:31;14.80;99.90
1447;DHT22;717;51.522;7.266;2023-04-30T00:28:00;14.80;99.90
1447;DHT22;717;51.522;7.266;2023-04-30T00:30:28;14.80;99.90
1447;DHT22;717;51.522;7.266;2023-04-30T00:32:57;14.80;99.90
1447;DHT22;717;51.522;7.266;2023-04-30T00:35:26;14.80;99.90
1447;DHT22;717;51.522;7.266;2023-04-30T00:37:57;14.80;99.90
1447;DHT22;717;51.522;7.266;2023-04-30T00:40:25;14.80;99.90
1447;DHT22;717;51.522;7.266;2023-04-30T00:42:54;14.70;99.90
1447;DHT22;717;51.522;7.266;2023-04-30T00:45:23;14.70;99.90
1447;DHT22;717;51.522;7.266;2023-04-30T00:47:54;14.70;99.90
1447;DHT22;717;51.522;7.266;2023-04-30T00:50:23;14.70;99.90
1447;DHT22;717;51.522;7.266;2023-04-30T00:52:52;14.60;99.90
1447;DHT22;717;51.522;7.266;2023-04-30T00:55:23;14.70;99.90
1447;DHT22;717;51.522;7.266;2023-04-30T00:57:52;14.60;99.90
1447;DHT22;717;51.522;7.266;2023-04-30T01:00:21;14.60;99.90
1447;DHT22;717;51.522;7.266;2023-04-30T01:02:49;14.60;99.90
1447;DHT22;717;51.522;7.266;2023-04-30T01:05:18;14.60;99.90
1447;DHT22;717;51.522;7.266;2023-04-30T01:07:48;14.60;99.90
1447;DHT22;717;51.522;7.266;2023-04-30T01:10:18;14.50;99.90
1447;DHT22;717;51.522;7.266;2023-04-30T01:12:56;14.50;99.90
1447;DHT22;717;51.522;7.266;2023-04-30T01:15:30;14.50;99.90
1447;DHT22;717;51.522;7.266;2023-04-30T01:18:04;14.50;99.90
1447;DHT22;717;51.522;7.266;2023-04-30T01:20:38;14.50;99.90
1447;DHT22;717;51.522;7.266;2023-04-30T01:23:22;14.40;99.90
1447;DHT22;717;51.522;7.266;2023-04-30T01:26:10;14.40;99.90
1447;DHT22;717;51.522;7.266;2023-04-30T01:28:45;14.40;99.90
1447;DHT22;717;51.522;7.266;2023-04-30T01:31:14;14.40;99.90
1447;DHT22;717;51.522;7.266;2023-04-30T01:33:45;14.40;99.90
1447;DHT22;717;51.522;7.266;2023-04-30T01:36:27;14.30;99.90
1447;DHT22;717;51.522;7.266;2023-04-30T01:39:09;14.30;99.90
1447;DHT22;717;51.522;7.266;2023-04-30T01:41:49;14.30;99.90
1447;DHT22;717;51.522;7.266;2023-04-30T01:44:40;14.30;99.90
1447;DHT22;717;51.522;7.266;2023-04-30T01:47:15;14.20;99.90
1447;DHT22;717;51.522;7.266;2023-04-30T01:49:55;14.20;99.90
1447;DHT22;717;51.522;7.266;2023-04-30T01:52:31;14.20;99.90
1447;DHT22;717;51.522;7.266;2023-04-30T01:55:08;14.20;99.90
1447;DHT22;717;51.522;7.266;2023-04-30T01:57:41;14.20;99.90
1447;DHT22;717;51.522;7.266;2023-04-30T02:00:13;14.20;99.90
1447;DHT22;717;51.522;7.266;2023-04-30T02:02:42;14.10;99.90
1447;DHT22;717;51.522;7.266;2023-04-30T02:05:11;14.10;99.90
1447;DHT22;717;51.522;7.266;2023-04-30T02:07:41;14.10;99.90
1447;DHT22;717;51.522;7.266;2023-04-30T02:10:10;14.10;99.90
1447;DHT22;717;51.522;7.266;2023-04-30T02:12:39;14.10;99.90
1447;DHT22;717;51.522;7.266;2023-04-30T02:15:09;14.10;99.90
1447;DHT22;717;51.522;7.266;2023-04-30T02:17:40;14.10;99.90
1447;DHT22;717;51.522;7.266;2023-04-30T02:20:09;14.00;99.90
1447;DHT22;717;51.522;7.266;2023-04-30T02:22:38;14.00;99.90
1447;DHT22;717;51.522;7.266;2023-04-30T02:25:08;14.00;99.90
1447;DHT22;717;51.522;7.266;2023-04-30T02:27:37;14.00;99.90
1447;DHT22;717;51.522;7.266;2023-04-30T02:30:07;13.90;99.90
1447;DHT22;717;51.522;7.266;2023-04-30T02:32:35;14.00;99.90
1447;DHT22;717;51.522;7.266;2023-04-30T02:35:07;14.00;99.90
1447;DHT22;717;51.522;7.266;2023-04-30T02:37:36;13.90;99.90
1447;DHT22;717;51.522;7.266;2023-04-30T02:40:07;13.90;99.90
1447;DHT22;717;51.522;7.266;2023-04-30T02:42:35;13.90;99.90
1447;DHT22;717;51.522;7.266;2023-04-30T02:45:05;13.90;99.90
1447;DHT22;717;51.522;7.266;2023-04-30T02:47:34;13.90;99.90
1447;DHT22;717;51.522;7.266;2023-04-30T02:50:03;13.90;99.90
1447;DHT22;717;51.522;7.266;2023-04-30T02:52:34;13.90;99.90
1447;DHT22;717;51.522;7.266;2023-04-30T02:55:03;13.90;99.90
1447;DHT22;717;51.522;7.266;2023-04-30T02:57:32;13.90;99.90
1447;DHT22;717;51.522;7.266;2023-04-30T03:00:00;13.90;99.90
1447;DHT22;717;51.522;7.266;2023-04-30T03:02:29;13.90;99.90
1447;DHT22;717;51.522;7.266;2023-04-30T03:04:57;13.80;99.90
1447;DHT22;717;51.522;7.266;2023-04-30T03:07:26;13.80;99.90
1447;DHT22;717;51.522;7.266;2023-04-30T03:09:57;13.80;99.90
1447;DHT22;717;51.522;7.266;2023-04-30T03:12:26;13.80;99.90
1447;DHT22;717;51.522;7.266;2023-04-30T03:14:54;13.80;99.90
1447;DHT22;717;51.522;7.266;2023-04-30T03:17:23;13.80;99.90
1447;DHT22;717;51.522;7.266;2023-04-30T03:19:51;13.80;99.90
1447;DHT22;717;51.522;7.266;2023-04-30T03:22:20;13.80;99.90
1447;DHT22;717;51.522;7.266;2023-04-30T03:24:51;13.70;99.90
1447;DHT22;717;51.522;7.266;2023-04-30T03:27:22;13.70;99.90
1447;DHT22;717;51.522;7.266;2023-04-30T03:29:51;13.70;99.90
1447;DHT22;717;51.522;7.266;2023-04-30T03:32:19;13.70;99.90
1447;DHT22;717;51.522;7.266;2023-04-30T03:34:48;13.70;99.90
1447;DHT22;717;51.522;7.266;2023-04-30T03:37:16;13.70;99.90
1447;DHT22;717;51.522;7.266;2023-04-30T03:39:45;13.70;99.90
1447;DHT22;717;51.522;7.266;2023-04-30T03:42:13;13.70;99.90
1447;DHT22;717;51.522;7.266;2023-04-30T03:44:44;13.70;99.90
1447;DHT22;717;51.522;7.266;2023-04-30T03:47:13;13.70;99.90
1447;DHT22;717;51.522;7.266;2023-04-30T03:49:42;13.70;99.90
1447;DHT22;717;51.522;7.266;2023-04-30T03:52:10;13.70;99.90
1447;DHT22;717;51.522;7.266;2023-04-30T03:54:39;13.60;99.90
1447;DHT22;717;51.522;7.266;2023-04-30T03:57:07;13.70;99.90
1447;DHT22;717;51.522;7.266;2023-04-30T03:59:38;13.60;99.90
1447;DHT22;717;51.522;7.266;2023-04-30T04:02:09;13.60;99.90
1447;DHT22;717;51.522;7.266;2023-04-30T04:04:38;13.60;99.90
1447;DHT22;717;51.522;7.266;2023-04-30T04:07:07;13.60;99.90
1447;DHT22;717;51.522;7.266;2023-04-30T04:09:36;13.60;99.90
1447;DHT22;717;51.522;7.266;2023-04-30T04:12:05;13.60;99.90
1447;DHT22;717;51.522;7.266;2023-04-30T04:14:34;13.50;99.90
1447;DHT22;717;51.522;7.266;2023-04-30T04:17:02;13.50;99.90
1447;DHT22;717;51.522;7.266;2023-04-30T04:19:34;13.50;99.90
1447;DHT22;717;51.522;7.266;2023-04-30T04:22:02;13.50;99.90
1447;DHT22;717;51.522;7.266;2023-04-30T04:24:31;13.50;99.90
1447;DHT22;717;51.522;7.266;2023-04-30T04:26:59;13.50;99.90
1447;DHT22;717;51.522;7.266;2023-04-30T04:29:30;13.50;99.90
1447;DHT22;717;51.522;7.266;2023-04-30T04:31:59;13.50;99.90
1447;DHT22;717;51.522;7.266;2023-04-30T04:34:33;13.50;99.90
1447;DHT22;717;51.522;7.266;2023-04-30T04:37:03;13.50;99.90
1447;DHT22;717;51.522;7.266;2023-04-30T04:39:31;13.50;99.90
1447;DHT22;717;51.522;7.266;2023-04-30T04:42:01;13.50;99.90
1447;DHT22;717;51.522;7.266;2023-04-30T04:44:29;13.40;99.90
1447;DHT22;717;51.522;7.266;2023-04-30T04:46:58;13.40;99.90
1447;DHT22;717;51.522;7.266;2023-04-30T04:49:28;13.40;99.90
1447;DHT22;717;51.522;7.266;2023-04-30T04:52:00;13.40;99.90
1447;DHT22;717;51.522;7.266;2023-04-30T04:54:30;13.40;99.90
1447;DHT22;717;51.522;7.266;2023-04-30T04:56:58;13.40;99.90
1447;DHT22;717;51.522;7.266;2023-04-30T04:59:27;13.40;99.90
1447;DHT22;717;51.522;7.266;2023-04-30T05:01:56;13.40;99.90
1447;DHT22;717;51.522;7.266;2023-04-30T05:04:25;13.40;99.90
1447;DHT22;717;51.522;7.266;2023-04-30T05:06:54;13.40;99.90
1447;DHT22;717;51.522;7.266;2023-04-30T05:09:25;13.40;99.90
1447;DHT22;717;51.522;7.266;2023-04-30T05:11:54;13.40;99.90
1447;DHT22;717;51.522;7.266;2023-04-30T05:14:23;13.40;99.90
1447;DHT22;717;51.522;7.266;2023-04-30T05:16:51;13.40;99.90
1447;DHT22;717;51.522;7.266;2023-04-30T05:19:20;13.40;99.90
1447;DHT22;717;51.522;7.266;2023-04-30T05:21:49;13.40;99.90
1447;DHT22;717;51.522;7.266;2023-04-30T05:24:17;13.40;99.90
1447;DHT22;717;51.522;7.266;2023-04-30T05:26:48;13.40;99.90
1447;DHT22;717;51.522;7.266;2023-04-30T05:29:17;13.40;99.90
1447;DHT22;717;51.522;7.266;2023-04-30T05:31:46;13.40;99.90
1447;DHT22;717;51.522;7.266;2023-04-30T05:34:14;13.40;99.90
1447;DHT22;717;51.522;7.266;2023-04-30T05:36:43;13.40;99.90
1447;DHT22;717;51.522;7.266;2023-04-30T05:39:11;13.40;99.90
1447;DHT22;717;51.522;7.266;2023-04-30T05:41:40;13.40;99.90
1447;DHT22;717;51.522;7.266;2023-04-30T05:44:11;13.40;99.90
1447;DHT22;717;51.522;7.266;2023-04-30T05:46:40;13.40;99.90
1447;DHT22;717;51.522;7.266;2023-04-30T05:49:08;13.40;99.90
1447;DHT22;717;51.522;7.266;2023-04-30T05:51:37;13.40;99.90
1447;DHT22;717;51.522;7.266;2023-04-30T05:54:06;13.40;99.90
1447;DHT22;717;51.522;7.266;2023-04-30T05:56:34;13.40;99.90
1447;DHT22;717;51.522;7.266;2023-04-30T05:59:03;13.50;99.90
1447;DHT22;717;51.522;7.266;2023-04-30T06:01:34;13.50;99.90
1447;DHT22;717;51.522;7.266;2023-04-30T06:04:03;13.50;99.90
1447;DHT22;717;51.522;7.266;2023-04-30T06:06:34;13.40;99.90
1447;DHT22;717;51.522;7.266;2023-04-30T06:09:02;13.50;99.90
1447;DHT22;717;51.522;7.266;2023-04-30T06:11:31;13.50;99.90
1447;DHT22;717;51.522;7.266;2023-04-30T06:14:00;13.50;99.90
1447;DHT22;717;51.522;7.266;2023-04-30T06:16:28;13.50;99.90
1447;DHT22;717;51.522;7.266;2023-04-30T06:19:00;13.50;99.90
1447;DHT22;717;51.522;7.266;2023-04-30T06:21:28;13.50;99.90
1447;DHT22;717;51.522;7.266;2023-04-30T06:23:57;13.50;99.90
1447;DHT22;717;51.522;7.266;2023-04-30T06:26:26;13.60;99.90
1447;DHT22;717;51.522;7.266;2023-04-30T06:28:55;13.60;99.90
1447;DHT22;717;51.522;7.266;2023-04-30T06:31:24;13.60;99.90
1447;DHT22;717;51.522;7.266;2023-04-30T06:33:52;13.60;99.90
1447;DHT22;717;51.522;7.266;2023-04-30T06:36:23;13.60;99.90
1447;DHT22;717;51.522;7.266;2023-04-30T06:38:52;13.60;99.90
1447;DHT22;717;51.522;7.266;2023-04-30T06:41:20;13.60;99.90
1447;DHT22;717;51.522;7.266;2023-04-30T06:43:49;13.70;99.90
1447;DHT22;717;51.522;7.266;2023-04-30T06:46:18;13.70;99.90
1447;DHT22;717;51.522;7.266;2023-04-30T06:48:46;13.70;99.90
1447;DHT22;717;51.522;7.266;2023-04-30T06:51:15;13.70;99.90
1447;DHT22;717;51.522;7.266;2023-04-30T06:53:46;13.70;99.90
1447;DHT22;717;51.522;7.266;2023-04-30T06:56:15;13.80;99.90
1447;DHT22;717;51.522;7.266;2023-04-30T06:58:43;13.80;99.90
1447;DHT22;717;51.522;7.266;2023-04-30T07:01:12;13.80;99.90
1447;DHT22;717;51.522;7.266;2023-04-30T07:03:41;13.90;99.90
1447;DHT22;717;51.522;7.266;2023-04-30T07:06:09;13.90;99.90
1447;DHT22;717;51.522;7.266;2023-04-30T07:08:38;13.90;99.90
1447;DHT22;717;51.522;7.266;2023-04-30T07:11:11;13.90;99.90
1447;DHT22;717;51.522;7.266;2023-04-30T07:13:39;14.00;99.90
1447;DHT22;717;51.522;7.266;2023-04-30T07:16:08;14.00;99.90
1447;DHT22;717;51.522;7.266;2023-04-30T07:18:37;14.10;99.90
1447;DHT22;717;51.522;7.266;2023-04-30T07:21:05;14.10;99.90
1447;DHT22;717;51.522;7.266;2023-04-30T07:23:34;14.10;99.90
1447;DHT22;717;51.522;7.266;2023-04-30T07:26:03;14.20;99.90
1447;DHT22;717;51.522;7.266;2023-04-30T07:28:34;14.10;99.90
1447;DHT22;717;51.522;7.266;2023-04-30T07:31:03;14.20;99.90
1447;DHT22;717;51.522;7.266;2023-04-30T07:33:32;14.20;99.90
1447;DHT22;717;51.522;7.266;2023-04-30T07:36:00;14.20;99.90
1447;DHT22;717;51.522;7.266;2023-04-30T07:38:29;14.20;99.90
1447;DHT22;717;51.522;7.266;2023-04-30T07:40:58;14.20;99.90
1447;DHT22;717;51.522;7.266;2023-04-30T07:43:26;14.30;99.90
1447;DHT22;717;51.522;7.266;2023-04-30T07:45:58;14.30;99.90
1447;DHT22;717;51.522;7.266;2023-04-30T07:48:27;14.30;99.90
1447;DHT22;717;51.522;7.266;2023-04-30T07:50:55;14.40;99.90
1447;DHT22;717;51.522;7.266;2023-04-30T07:53:24;14.40;99.90
1447;DHT22;717;51.522;7.266;2023-04-30T07:55:52;14.50;99.90
1447;DHT22;717;51.522;7.266;2023-04-30T07:58:21;14.50;99.90
1447;DHT22;717;51.522;7.266;2023-04-30T08:00:50;14.50;99.90
1447;DHT22;717;51.522;7.266;2023-04-30T08:03:21;14.60;99.90
1447;DHT22;717;51.522;7.266;2023-04-30T08:05:50;14.60;99.90
1447;DHT22;717;51.522;7.266;2023-04-30T08:08:19;14.60;99.90
1447;DHT22;717;51.522;7.266;2023-04-30T08:10:48;14.70;99.90
1447;DHT22;717;51.522;7.266;2023-04-30T08:13:16;14.80;99.90
1447;DHT22;717;51.522;7.266;2023-04-30T08:15:45;14.80;99.90
1447;DHT22;717;51.522;7.266;2023-04-30T08:18:14;14.80;99.90
1447;DHT22;717;51.522;7.266;2023-04-30T08:20:45;14.80;99.90
1447;DHT22;717;51.522;7.266;2023-04-30T08:23:13;14.90;99.90
1447;DHT22;717;51.522;7.266;2023-04-30T08:25:43;14.90;99.90
1447;DHT22;717;51.522;7.266;2023-04-30T08:28:11;14.90;99.90
1447;DHT22;717;51.522;7.266;2023-04-30T08:30:40;15.00;99.90
1447;DHT22;717;51.522;7.266;2023-04-30T08:33:09;15.00;99.90
1447;DHT22;717;51.522;7.266;2023-04-30T08:35:38;15.10;99.90
1447;DHT22;717;51.522;7.266;2023-04-30T08:38:09;15.10;99.90
1447;DHT22;717;51.522;7.266;2023-04-30T08:40:39;15.10;99.90
1447;DHT22;717;51.522;7.266;2023-04-30T08:43:08;15.20;99.90
1447;DHT22;717;51.522;7.266;2023-04-30T08:45:37;15.20;99.90
1447;DHT22;717;51.522;7.266;2023-04-30T08:48:09;15.30;99.90
1447;DHT22;717;51.522;7.266;2023-04-30T08:50:40;15.40;99.90
1447;DHT22;717;51.522;7.266;2023-04-30T08:53:11;15.40;99.90
1447;DHT22;717;51.522;7.266;2023-04-30T08:55:42;15.50;99.90
1447;DHT22;717;51.522;7.266;2023-04-30T08:58:10;15.50;99.90
1447;DHT22;717;51.522;7.266;2023-04-30T09:00:40;15.60;99.90
1447;DHT22;717;51.522;7.266;2023-04-30T09:03:09;15.60;99.90
1447;DHT22;717;51.522;7.266;2023-04-30T09:05:38;15.70;99.90
1447;DHT22;717;51.522;7.266;2023-04-30T09:08:08;15.70;99.90
1447;DHT22;717;51.522;7.266;2023-04-30T09:10:39;15.80;99.90
1447;DHT22;717;51.522;7.266;2023-04-30T09:13:08;15.80;99.90
1447;DHT22;717;51.522;7.266;2023-04-30T09:15:39;15.90;99.90
1447;DHT22;717;51.522;7.266;2023-04-30T09:18:12;16.00;99.90
1447;DHT22;717;51.522;7.266;2023-04-30T09:20:56;16.00;99.90
1447;DHT22;717;51.522;7.266;2023-04-30T09:23:25;16.10;99.90
1447;DHT22;717;51.522;7.266;2023-04-30T09:25:57;16.20;99.90
1447;DHT22;717;51.522;7.266;2023-04-30T09:28:26;16.20;99.90
1447;DHT22;717;51.522;7.266;2023-04-30T09:30:56;16.30;99.90
1447;DHT22;717;51.522;7.266;2023-04-30T09:33:25;16.30;99.90
1447;DHT22;717;51.522;7.266;2023-04-30T09:35:54;16.40;99.90
1447;DHT22;717;51.522;7.266;2023-04-30T09:38:27;16.40;99.90
1447;DHT22;717;51.522;7.266;2023-04-30T09:41:00;16.40;99.90
1447;DHT22;717;51.522;7.266;2023-04-30T09:43:29;16.50;99.90
1447;DHT22;717;51.522;7.266;2023-04-30T09:45:59;16.50;99.90
1447;DHT22;717;51.522;7.266;2023-04-30T09:48:27;16.60;99.90
1447;DHT22;717;51.522;7.266;2023-04-30T09:50:56;16.60;99.90
1447;DHT22;717;51.522;7.266;2023-04-30T09:53:26;16.70;99.90
1447;DHT22;717;51.522;7.266;2023-04-30T09:55:59;16.70;99.90
1447;DHT22;717;51.522;7.266;2023-04-30T09:58:31;16.80;99.90
1447;DHT22;717;51.522;7.266;2023-04-30T10:01:04;16.90;99.90
1447;DHT22;717;51.522;7.266;2023-04-30T10:03:36;16.90;99.90
1447;DHT22;717;51.522;7.266;2023-04-30T10:06:07;16.90;99.90
1447;DHT22;717;51.522;7.266;2023-04-30T10:08:40;17.00;99.90
1447;DHT22;717;51.522;7.266;2023-04-30T10:11:14;17.00;99.90
1447;DHT22;717;51.522;7.266;2023-04-30T10:13:50;17.10;99.90
1447;DHT22;717;51.522;7.266;2023-04-30T10:16:29;17.10;99.90
1447;DHT22;717;51.522;7.266;2023-04-30T10:19:06;17.20;99.90
1447;DHT22;717;51.522;7.266;2023-04-30T10:21:39;17.30;99.90
1447;DHT22;717;51.522;7.266;2023-04-30T10:24:11;17.40;99.90
1447;DHT22;717;51.522;7.266;2023-04-30T10:26:44;17.50;99.90
1447;DHT22;717;51.522;7.266;2023-04-30T10:29:13;17.60;99.90
1447;DHT22;717;51.522;7.266;2023-04-30T10:31:43;17.60;99.90
1447;DHT22;717;51.522;7.266;2023-04-30T10:34:18;17.70;99.90
1447;DHT22;717;51.522;7.266;2023-04-30T10:36:53;17.70;99.90
1447;DHT22;717;51.522;7.266;2023-04-30T10:39:25;17.80;99.90
1447;DHT22;717;51.522;7.266;2023-04-30T10:42:04;17.80;99.90
1447;DHT22;717;51.522;7.266;2023-04-30T10:44:33;17.90;99.90
1447;DHT22;717;51.522;7.266;2023-04-30T10:47:04;17.90;99.90
1447;DHT22;717;51.522;7.266;2023-04-30T10:49:33;18.00;99.90
1447;DHT22;717;51.522;7.266;2023-04-30T10:52:03;18.00;99.90
1447;DHT22;717;51.522;7.266;2023-04-30T10:54:34;18.10;99.90
1447;DHT22;717;51.522;7.266;2023-04-30T10:57:13;18.10;99.90
1447;DHT22;717;51.522;7.266;2023-04-30T10:59:51;18.20;99.90
1447;DHT22;717;51.522;7.266;2023-04-30T11:02:20;18.30;99.90
1447;DHT22;717;51.522;7.266;2023-04-30T11:05:07;18.30;99.90
1447;DHT22;717;51.522;7.266;2023-04-30T11:07:36;18.40;99.90
1447;DHT22;717;51.522;7.266;2023-04-30T11:10:06;18.50;99.90
1447;DHT22;717;51.522;7.266;2023-04-30T11:12:40;18.60;99.90
1447;DHT22;717;51.522;7.266;2023-04-30T11:15:13;18.60;99.90
1447;DHT22;717;51.522;7.266;2023-04-30T11:17:42;18.70;99.90
1447;DHT22;717;51.522;7.266;2023-04-30T11:20:12;18.80;99.90
1447;DHT22;717;51.522;7.266;2023-04-30T11:22:44;18.80;99.90
1447;DHT22;717;51.522;7.266;2023-04-30T11:25:18;18.80;99.90
1447;DHT22;717;51.522;7.266;2023-04-30T11:27:49;18.90;99.90
1447;DHT22;717;51.522;7.266;2023-04-30T11:30:18;19.00;99.90
1447;DHT22;717;51.522;7.266;2023-04-30T11:32:49;19.00;99.90
1447;DHT22;717;51.522;7.266;2023-04-30T11:35:19;19.00;99.90
1447;DHT22;717;51.522;7.266;2023-04-30T11:37:48;19.10;99.90
1447;DHT22;717;51.522;7.266;2023-04-30T11:40:16;19.20;99.90
1447;DHT22;717;51.522;7.266;2023-04-30T11:42:48;19.20;99.90
1447;DHT22;717;51.522;7.266;2023-04-30T11:45:17;19.30;99.90
1447;DHT22;717;51.522;7.266;2023-04-30T11:47:48;19.30;99.90
1447;DHT22;717;51.522;7.266;2023-04-30T11:50:19;19.30;99.90
1447;DHT22;717;51.522;7.266;2023-04-30T11:52:53;19.40;99.90
1447;DHT22;717;51.522;7.266;2023-04-30T11:55:22;19.50;99.90
1447;DHT22;717;51.522;7.266;2023-04-30T11:57:55;19.50;99.90
1447;DHT22;717;51.522;7.266;2023-04-30T12:00:26;19.60;99.90
1447;DHT22;717;51.522;7.266;2023-04-30T12:02:56;19.60;99.90
1447;DHT22;717;51.522;7.266;2023-04-30T12:05:26;19.60;99.90
1447;DHT22;717;51.522;7.266;2023-04-30T12:07:58;19.70;99.90
1447;DHT22;717;51.522;7.266;2023-04-30T12:10:30;19.80;99.90
1447;DHT22;717;51.522;7.266;2023-04-30T12:13:02;19.80;99.90
1447;DHT22;717;51.522;7.266;2023-04-30T12:15:31;19.80;99.90
1447;DHT22;717;51.522;7.266;2023-04-30T12:18:10;19.90;99.90
1447;DHT22;717;51.522;7.266;2023-04-30T12:20:40;20.00;99.90
1447;DHT22;717;51.522;7.266;2023-04-30T12:23:09;20.00;99.90
1447;DHT22;717;51.522;7.266;2023-04-30T12:25:41;20.10;99.90
1447;DHT22;717;51.522;7.266;2023-04-30T12:28:12;20.20;99.90
1447;DHT22;717;51.522;7.266;2023-04-30T12:30:42;20.20;99.90
1447;DHT22;717;51.522;7.266;2023-04-30T12:33:11;20.30;99.90
1447;DHT22;717;51.522;7.266;2023-04-30T12:35:42;20.30;99.90
1447;DHT22;717;51.522;7.266;2023-04-30T12:38:14;20.40;99.90
1447;DHT22;717;51.522;7.266;2023-04-30T12:40:46;20.40;99.90
1447;DHT22;717;51.522;7.266;2023-04-30T12:43:17;20.50;99.90
1447;DHT22;717;51.522;7.266;2023-04-30T12:45:48;20.50;99.90
1447;DHT22;717;51.522;7.266;2023-04-30T12:48:20;20.60;99.90
1447;DHT22;717;51.522;7.266;2023-04-30T12:50:52;20.60;99.90
1447;DHT22;717;51.522;7.266;2023-04-30T12:53:22;20.70;99.90
1447;DHT22;717;51.522;7.266;2023-04-30T12:56:06;20.80;99.90
1447;DHT22;717;51.522;7.266;2023-04-30T12:58:37;20.80;99.90
1447;DHT22;717;51.522;7.266;2023-04-30T13:01:10;20.90;99.90
1447;DHT22;717;51.522;7.266;2023-04-30T13:03:39;20.90;99.90
1447;DHT22;717;51.522;7.266;2023-04-30T13:06:08;21.00;99.90
1447;DHT22;717;51.522;7.266;2023-04-30T13:08:37;21.00;99.90
1447;DHT22;717;51.522;7.266;2023-04-30T13:11:06;21.10;99.90
1447;DHT22;717;51.522;7.266;2023-04-30T13:13:37;21.10;99.90
1447;DHT22;717;51.522;7.266;2023-04-30T13:16:06;21.10;99.90
1447;DHT22;717;51.522;7.266;2023-04-30T13:18:35;21.20;99.90
1447;DHT22;717;51.522;7.266;2023-04-30T13:21:04;21.20;99.90
1447;DHT22;717;51.522;7.266;2023-04-30T13:23:33;21.20;99.90
1447;DHT22;717;51.522;7.266;2023-04-30T13:26:01;21.10;99.90
1447;DHT22;717;51.522;7.266;2023-04-30T13:28:30;21.20;99.90
1447;DHT22;717;51.522;7.266;2023-04-30T13:31:03;21.20;99.90
1447;DHT22;717;51.522;7.266;2023-04-30T13:33:32;21.20;99.90
1447;DHT22;717;51.522;7.266;2023-04-30T13:36:01;21.10;99.90
1447;DHT22;717;51.522;7.266;2023-04-30T13:38:29;21.10;99.90
1447;DHT22;717;51.522;7.266;2023-04-30T13:40:58;21.10;99.90
1447;DHT22;717;51.522;7.266;2023-04-30T13:43:27;21.10;99.90
1447;DHT22;717;51.522;7.266;2023-04-30T13:45:56;21.00;99.90
1447;DHT22;717;51.522;7.266;2023-04-30T13:48:27;21.00;99.90
1447;DHT22;717;51.522;7.266;2023-04-30T13:50:56;21.10;99.90
1447;DHT22;717;51.522;7.266;2023-04-30T13:53:24;21.10;99.90
1447;DHT22;717;51.522;7.266;2023-04-30T13:55:53;21.20;99.90
1447;DHT22;717;51.522;7.266;2023-04-30T13:58:23;21.20;99.90
1447;DHT22;717;51.522;7.266;2023-04-30T14:00:52;21.20;99.90
1447;DHT22;717;51.522;7.266;2023-04-30T14:03:21;21.30;99.90
1447;DHT22;717;51.522;7.266;2023-04-30T14:05:53;21.30;99.90
1447;DHT22;717;51.522;7.266;2023-04-30T14:08:22;21.40;99.90
1447;DHT22;717;51.522;7.266;2023-04-30T14:10:51;21.40;99.90
1447;DHT22;717;51.522;7.266;2023-04-30T14:13:19;21.40;99.90
1447;DHT22;717;51.522;7.266;2023-04-30T14:15:48;21.50;99.90
1447;DHT22;717;51.522;7.266;2023-04-30T14:18:16;21.60;99.90
1447;DHT22;717;51.522;7.266;2023-04-30T14:20:47;21.70;99.90
1447;DHT22;717;51.522;7.266;2023-04-30T14:23:18;21.70;99.90
1447;DHT22;717;51.522;7.266;2023-04-30T14:25:46;21.80;99.90
1447;DHT22;717;51.522;7.266;2023-04-30T14:28:15;21.80;99.90
1447;DHT22;717;51.522;7.266;2023-04-30T14:30:44;21.70;99.90
1447;DHT22;717;51.522;7.266;2023-04-30T14:33:13;21.80;99.90
1447;DHT22;717;51.522;7.266;2023-04-30T14:35:41;21.70;99.90
1447;DHT22;717;51.522;7.266;2023-04-30T14:38:10;21.80;99.90
1447;DHT22;717;51.522;7.266;2023-04-30T14:40:42;21.90;99.60
1447;DHT22;717;51.522;7.266;2023-04-30T14:43:11;21.80;99.50
1447;DHT22;717;51.522;7.266;2023-04-30T14:45:40;22.00;99.70
1447;DHT22;717;51.522;7.266;2023-04-30T14:48:10;22.00;99.70
1447;DHT22;717;51.522;7.266;2023-04-30T14:50:38;22.00;99.60
1447;DHT22;717;51.522;7.266;2023-04-30T14:53:07;22.00;99.40
1447;DHT22;717;51.522;7.266;2023-04-30T14:55:37;22.00;99.20
1447;DHT22;717;51.522;7.266;2023-04-30T14:58:09;22.00;99.50
1447;DHT22;717;51.522;7.266;2023-04-30T15:00:37;22.00;99.60
1447;DHT22;717;51.522;7.266;2023-04-30T15:03:06;22.00;99.30
1447;DHT22;717;51.522;7.266;2023-04-30T15:05:34;22.00;99.10
1447;DHT22;717;51.522;7.266;2023-04-30T15:08:03;22.10;99.10
1447;DHT22;717;51.522;7.266;2023-04-30T15:10:32;22.10;99.10
1447;DHT22;717;51.522;7.266;2023-04-30T15:13:01;22.10;98.90
1447;DHT22;717;51.522;7.266;2023-04-30T15:15:32;22.10;98.60
1447;DHT22;717;51.522;7.266;2023-04-30T15:18:02;22.10;98.30
1447;DHT22;717;51.522;7.266;2023-04-30T15:20:31;22.20;98.00
1447;DHT22;717;51.522;7.266;2023-04-30T15:23:00;22.20;97.90
1447;DHT22;717;51.522;7.266;2023-04-30T15:25:29;22.20;97.80
1447;DHT22;717;51.522;7.266;2023-04-30T15:27:57;22.20;97.70
1447;DHT22;717;51.522;7.266;2023-04-30T15:30:26;22.20;97.80
1447;DHT22;717;51.522;7.266;2023-04-30T15:32:57;22.20;98.00
1447;DHT22;717;51.522;7.266;2023-04-30T15:35:26;22.30;97.90
1447;DHT22;717;51.522;7.266;2023-04-30T15:37:55;22.30;97.60
1447;DHT22;717;51.522;7.266;2023-04-30T15:40:23;22.30;97.60
1447;DHT22;717;51.522;7.266;2023-04-30T15:42:52;22.30;97.50
1447;DHT22;717;51.522;7.266;2023-04-30T15:45:20;22.30;97.20
1447;DHT22;717;51.522;7.266;2023-04-30T15:47:49;22.30;97.10
1447;DHT22;717;51.522;7.266;2023-04-30T15:50:21;22.30;97.10
1447;DHT22;717;51.522;7.266;2023-04-30T15:52:50;22.30;96.80
1447;DHT22;717;51.522;7.266;2023-04-30T15:55:18;22.30;96.90
1447;DHT22;717;51.522;7.266;2023-04-30T15:57:47;22.30;96.80
1447;DHT22;717;51.522;7.266;2023-04-30T16:00:16;22.30;96.70
1447;DHT22;717;51.522;7.266;2023-04-30T16:02:45;22.30;96.60
1447;DHT22;717;51.522;7.266;2023-04-30T16:05:14;22.30;96.60
1447;DHT22;717;51.522;7.266;2023-04-30T16:07:46;22.30;96.50
1447;DHT22;717;51.522;7.266;2023-04-30T16:10:14;22.30;96.50
1447;DHT22;717;51.522;7.266;2023-04-30T16:12:44;22.30;96.50
1447;DHT22;717;51.522;7.266;2023-04-30T16:15:13;22.30;96.30
1447;DHT22;717;51.522;7.266;2023-04-30T16:17:41;22.30;96.20
1447;DHT22;717;51.522;7.266;2023-04-30T16:20:11;22.30;96.20
1447;DHT22;717;51.522;7.266;2023-04-30T16:22:40;22.40;96.10
1447;DHT22;717;51.522;7.266;2023-04-30T16:25:11;22.40;96.10
1447;DHT22;717;51.522;7.266;2023-04-30T16:27:40;22.30;95.80
1447;DHT22;717;51.522;7.266;2023-04-30T16:30:10;22.40;95.40
1447;DHT22;717;51.522;7.266;2023-04-30T16:32:38;22.30;95.30
1447;DHT22;717;51.522;7.266;2023-04-30T16:35:08;22.30;95.00